Lum, Michigan
Current Conditions -  °F | °C
As of 5:53 PM on Thursday 18 Dec 2014 (Local Time) from KD95 Reporting Station
Overcast Overcast  
Wind Chill: 22°   Ceiling: 600
Heat Index: 28°   Visibility: 7mi
Dew Point: 27°   Wind: 5mph
Humidity: 96%   Direction: 360°N
Pressure: 30.17"   Gusts: NA
Location:  43.0581°N, 83.167°W
Report Text: KD95 182253Z AUTO 36004KT 7SM OVC006 M02/M03 A3017 RMK AO2 T10251030
Loading
Personal Weather Stations






























Interactive Weather Map New forecast layout! Learn more

10-Day Weather Forecast

Advertisements
Track Severe Weather on mobile